Time;durP1;ratioP1;P1;durP2;ratioP2;P2;SDS_P1;SDS_P2;PMS_P1;PMS_P2;Temp;Humidity;BMP_temperature;BMP_pressure;BME280_temperature;BME280_humidity;BME280_pressure;Samples;Min_cycle;Max_cycle;Signal;HPM_P1;HPM_P2
2022/04/20 00:01:24;;;;;;;20.05;12.75;;;;;;;11.28;100.00;100210.77;1716783;82;21081;-60
2022/04/20 00:03:51;;;;;;;21.60;13.00;;;;;;;11.31;100.00;100214.45;1719118;83;21084;-59
2022/04/20 00:06:20;;;;;;;32.13;17.82;;;;;;;11.12;100.00;100221.02;1719084;83;21037;-59
2022/04/20 00:08:49;;;;;;;38.65;19.75;;;;;;;11.00;100.00;100218.60;1718958;83;21037;-59
2022/04/20 00:11:17;;;;;;;39.73;19.57;;;;;;;11.10;100.00;100218.15;1719105;83;21013;-59
2022/04/20 00:13:45;;;;;;;36.45;19.40;;;;;;;11.10;100.00;100219.44;1718994;83;21087;-59
2022/04/20 00:16:13;;;;;;;36.77;18.67;;;;;;;11.05;100.00;100231.70;1718998;83;21080;-60
2022/04/20 00:18:40;;;;;;;28.27;16.23;;;;;;;11.05;100.00;100240.72;1719130;83;21486;-59
2022/04/20 00:21:07;;;;;;;25.72;15.80;;;;;;;10.80;100.00;100233.76;1718998;83;21053;-59
2022/04/20 00:23:36;;;;;;;21.97;13.48;;;;;;;10.95;100.00;100225.74;1719172;83;21033;-59
2022/04/20 00:26:03;;;;;;;20.70;13.25;;;;;;;10.71;100.00;100234.22;1719034;83;21076;-59
2022/04/20 00:28:30;;;;;;;20.68;13.05;;;;;;;10.76;100.00;100233.99;1719206;83;21514;-59
2022/04/20 00:30:58;;;;;;;20.50;13.10;;;;;;;10.99;100.00;100236.27;1718874;83;21100;-59
2022/04/20 00:33:25;;;;;;;28.02;16.48;;;;;;;10.89;100.00;100243.22;1718987;83;21044;-59
2022/04/20 00:35:52;;;;;;;32.45;16.93;;;;;;;10.91;100.00;100250.41;1719214;83;21088;-59
2022/04/20 00:38:19;;;;;;;37.58;19.23;;;;;;;10.90;100.00;100257.31;1718865;83;21040;-59
2022/04/20 00:40:50;;;;;;;30.35;16.10;;;;;;;10.91;100.00;100256.85;1719050;83;21092;-59
2022/04/20 00:43:18;;;;;;;39.05;19.40;;;;;;;10.98;100.00;100258.23;1719244;83;21048;-59
2022/04/20 00:45:50;;;;;;;18.35;11.85;;;;;;;11.07;100.00;100250.48;1718839;83;21041;-59
2022/04/20 00:48:18;;;;;;;17.57;11.50;;;;;;;11.08;100.00;100245.27;1719277;83;21037;-59
2022/04/20 00:50:47;;;;;;;17.02;11.30;;;;;;;11.11;100.00;100241.70;1718893;83;20997;-59
2022/04/20 00:53:16;;;;;;;17.65;11.75;;;;;;;11.06;100.00;100246.27;1718944;83;21617;-59
2022/04/20 00:55:43;;;;;;;15.68;11.22;;;;;;;10.99;100.00;100244.00;1695122;83;21056;-59
2022/04/20 00:58:13;;;;;;;17.02;11.38;;;;;;;10.83;100.00;100235.37;1719017;83;21076;-59
2022/04/20 01:00:40;;;;;;;20.60;12.70;;;;;;;10.84;100.00;100230.58;1719207;82;21067;-59
2022/04/20 01:03:08;;;;;;;19.73;12.23;;;;;;;10.86;100.00;100231.80;1620921;88;21067;-59
2022/04/20 01:05:54;;;;;;;21.35;13.60;;;;;;;10.78;100.00;100233.46;1633791;88;21099;-59
2022/04/20 01:08:24;;;;;;;22.65;13.10;;;;;;;10.81;100.00;100238.02;1634402;87;21092;-59
2022/04/20 01:11:06;;;;;;;21.00;12.28;;;;;;;10.79;100.00;100241.58;1613933;87;21059;-59
2022/04/20 01:13:38;;;;;;;20.20;12.15;;;;;;;10.84;100.00;100240.87;1615684;87;21064;-59
2022/04/20 01:16:09;;;;;;;20.15;11.93;;;;;;;10.82;100.00;100240.13;1634100;87;21710;-59
2022/04/20 01:18:43;;;;;;;19.85;12.28;;;;;;;10.79;100.00;100238.55;1633661;87;21048;-59
2022/04/20 01:21:30;;;;;;;20.32;12.13;;;;;;;10.70;100.00;100238.16;1633520;87;21024;-59
2022/04/20 01:24:05;;;;;;;17.70;11.22;;;;;;;10.68;100.00;100235.65;1618292;87;21063;-59
2022/04/20 01:26:39;;;;;;;17.80;11.43;;;;;;;10.51;100.00;100233.08;1626259;87;21048;-59
2022/04/20 01:29:28;;;;;;;16.95;11.25;;;;;;;10.47;100.00;100226.41;1633496;88;21056;-60
2022/04/20 01:31:59;;;;;;;16.42;11.08;;;;;;;10.41;100.00;100212.92;1633246;87;21112;-60
2022/04/20 01:34:32;;;;;;;19.00;11.95;;;;;;;10.36;100.00;100216.19;1626000;87;21071;-60
2022/04/20 01:37:01;;;;;;;16.02;11.03;;;;;;;10.39;100.00;100214.73;1633370;88;21521;-60
2022/04/20 01:39:28;;;;;;;18.60;11.57;;;;;;;10.39;100.00;100216.02;1633637;88;21044;-60
2022/04/20 01:41:56;;;;;;;18.15;11.18;;;;;;;10.54;100.00;100222.19;1633446;87;21092;-60
2022/04/20 01:44:23;;;;;;;17.98;11.63;;;;;;;10.68;100.00;100221.95;1633654;87;21064;-62
2022/04/20 01:46:54;;;;;;;18.40;11.68;;;;;;;10.58;100.00;100231.42;1631013;87;21020;-61
2022/04/20 01:49:23;;;;;;;17.15;11.78;;;;;;;10.58;100.00;100233.14;1629544;87;21052;-61
2022/04/20 01:51:52;;;;;;;17.15;11.48;;;;;;;10.71;100.00;100226.50;1633798;87;21043;-61
2022/04/20 01:54:37;;;;;;;15.93;11.65;;;;;;;10.83;100.00;100224.61;1633600;88;21588;-60
2022/04/20 01:57:23;;;;;;;17.77;11.73;;;;;;;10.76;100.00;100218.08;1633534;87;21083;-60
2022/04/20 02:00:14;;;;;;;18.82;12.50;;;;;;;10.77;100.00;100214.61;1633550;86;21059;-61
2022/04/20 02:02:54;;;;;;;20.37;12.88;;;;;;;10.72;100.00;100215.28;1648980;86;21099;-60
2022/04/20 02:05:24;;;;;;;20.08;12.37;;;;;;;10.63;100.00;100217.86;1656118;86;21481;-60
2022/04/20 02:07:57;;;;;;;20.20;12.30;;;;;;;10.53;100.00;100210.21;1632885;85;21036;-60
2022/04/20 02:10:26;;;;;;;17.50;12.20;;;;;;;10.47;100.00;100207.94;1655410;86;21551;-60
2022/04/20 02:12:55;;;;;;;19.30;12.35;;;;;;;10.51;100.00;100209.45;1656240;87;21052;-61
2022/04/20 02:15:33;;;;;;;19.80;12.47;;;;;;;10.53;100.00;100208.10;1656141;87;21114;-60
2022/04/20 02:18:05;;;;;;;26.90;14.70;;;;;;;10.47;100.00;100207.94;1656231;87;21066;-60
2022/04/20 02:20:49;;;;;;;22.00;13.48;;;;;;;10.52;100.00;100207.70;1654195;86;21051;-60
2022/04/20 02:23:17;;;;;;;22.52;13.62;;;;;;;10.35;100.00;100204.21;1656269;87;21093;-60
2022/04/20 02:25:46;;;;;;;27.60;13.80;;;;;;;10.41;100.00;100203.09;1656071;87;21052;-61
2022/04/20 02:28:13;;;;;;;27.77;15.32;;;;;;;10.68;100.00;100211.66;1656133;86;21060;-60
2022/04/20 02:30:41;;;;;;;31.93;15.55;;;;;;;10.74;100.00;100207.48;1656458;87;21488;-61
2022/04/20 02:33:08;;;;;;;25.23;15.03;;;;;;;10.72;100.00;100220.89;1656146;87;21115;-61
2022/04/20 02:35:39;;;;;;;21.48;13.78;;;;;;;10.74;100.00;100226.80;1656274;87;21048;-61
2022/04/20 02:38:10;;;;;;;22.70;13.98;;;;;;;10.70;100.00;100236.87;1656141;87;21591;-61
2022/04/20 02:40:40;;;;;;;19.95;12.70;;;;;;;10.65;100.00;100245.28;1656362;87;21063;-61
2022/04/20 02:43:09;;;;;;;20.68;14.05;;;;;;;10.71;100.00;100245.81;1656215;86;21573;-59
2022/04/20 02:45:37;;;;;;;25.72;16.35;;;;;;;10.74;100.00;100246.93;1635413;87;21043;-59
2022/04/20 02:48:05;;;;;;;25.08;16.12;;;;;;;10.73;100.00;100239.31;1656308;87;21567;-59
2022/04/20 02:50:33;;;;;;;24.98;14.55;;;;;;;10.75;100.00;100250.36;1656434;87;21308;-59
2022/04/20 02:53:00;;;;;;;21.20;12.93;;;;;;;10.81;100.00;100243.63;1656008;86;21120;-59
2022/04/20 02:55:28;;;;;;;21.68;13.10;;;;;;;10.75;100.00;100244.75;1656329;86;21162;-59
2022/04/20 02:57:55;;;;;;;21.33;12.90;;;;;;;10.82;100.00;100240.95;1655844;87;21076;-59
2022/04/20 03:00:23;;;;;;;19.77;12.55;;;;;;;10.88;100.00;100242.86;1656185;85;21157;-60
2022/04/20 03:02:55;;;;;;;24.67;13.28;;;;;;;10.88;100.00;100246.26;1656330;86;21033;-60
2022/04/20 03:05:23;;;;;;;22.42;13.30;;;;;;;10.82;100.00;100246.56;1664117;86;21108;-60
2022/04/20 03:07:51;;;;;;;24.18;14.28;;;;;;;10.85;100.00;100251.58;1664299;86;21059;-59
2022/04/20 03:10:22;;;;;;;23.00;14.38;;;;;;;10.80;100.00;100254.36;1664170;86;21446;-59
2022/04/20 03:12:50;;;;;;;21.82;14.18;;;;;;;10.73;100.00;100244.45;1664428;86;21067;-59
2022/04/20 03:15:18;;;;;;;21.80;14.13;;;;;;;10.82;100.00;100260.27;1664222;86;21031;-60
2022/04/20 03:17:45;;;;;;;22.50;14.47;;;;;;;10.81;100.00;100271.95;1664297;86;21536;-60
2022/04/20 03:20:12;;;;;;;23.60;15.15;;;;;;;10.81;100.00;100273.23;1664555;86;21527;-60
2022/04/20 03:22:41;;;;;;;25.25;15.23;;;;;;;10.80;100.00;100271.09;1664170;86;21584;-60
2022/04/20 03:25:11;;;;;;;24.50;15.10;;;;;;;10.83;100.00;100276.11;1664447;86;21119;-60
2022/04/20 03:27:56;;;;;;;24.87;15.18;;;;;;;10.90;100.00;100280.95;1663224;86;21088;-59
2022/04/20 03:30:23;;;;;;;25.57;15.55;;;;;;;10.93;100.00;100277.78;1664310;86;21579;-60
2022/04/20 03:32:53;;;;;;;26.15;15.48;;;;;;;10.99;100.00;100272.33;1664169;86;21052;-60
2022/04/20 03:35:20;;;;;;;25.12;15.23;;;;;;;11.00;100.00;100275.27;1664406;86;21067;-60
2022/04/20 03:37:47;;;;;;;22.65;14.70;;;;;;;11.01;100.00;100273.55;1664179;86;21531;-59
2022/04/20 03:40:14;;;;;;;24.75;15.18;;;;;;;10.92;100.00;100278.67;1664193;86;21062;-60
2022/04/20 03:42:43;;;;;;;59.15;26.70;;;;;;;10.85;100.00;100278.61;1664457;86;21047;-60
2022/04/20 03:45:10;;;;;;;77.30;35.50;;;;;;;10.94;100.00;100279.44;1664131;86;21118;-60
2022/04/20 03:47:39;;;;;;;59.85;30.97;;;;;;;10.91;100.00;100282.17;1664320;86;21600;-60
2022/04/20 03:50:08;;;;;;;41.18;23.85;;;;;;;11.08;100.00;100283.08;1664121;86;21098;-60
2022/04/20 03:52:38;;;;;;;24.95;15.15;;;;;;;11.12;100.00;100281.55;1664474;86;21051;-60
2022/04/20 03:55:09;;;;;;;25.85;15.10;;;;;;;11.10;100.00;100278.69;1664327;86;21026;-60
2022/04/20 03:57:36;;;;;;;27.90;15.83;;;;;;;11.10;100.00;100277.40;1664302;86;21074;-60
2022/04/20 04:00:06;;;;;;;24.75;15.05;;;;;;;11.25;100.00;100284.80;1664305;85;21551;-60
2022/04/20 04:02:36;;;;;;;26.17;16.27;;;;;;;11.21;100.00;100276.39;1660677;86;21164;-60
2022/04/20 04:05:18;;;;;;;28.87;16.15;;;;;;;11.34;100.00;100276.16;1662794;85;21051;-60
2022/04/20 04:07:50;;;;;;;27.42;16.02;;;;;;;11.37;100.00;100279.02;1663468;85;21015;-60
2022/04/20 04:10:21;;;;;;;24.40;14.85;;;;;;;11.31;100.00;100278.88;1663626;85;21066;-58
2022/04/20 04:12:49;;;;;;;25.70;16.48;;;;;;;11.34;100.00;100276.62;1635416;87;21561;-60
2022/04/20 04:15:17;;;;;;;28.35;15.85;;;;;;;11.34;100.00;100290.33;1656046;86;21047;-60
2022/04/20 04:17:54;;;;;;;25.00;15.90;;;;;;;11.41;100.00;100291.70;1634392;87;21115;-60
2022/04/20 04:20:19;;;;;;;26.55;16.17;;;;;;;11.29;100.00;100297.45;1655811;86;21055;-60
2022/04/20 04:22:50;;;;;;;26.55;16.12;;;;;;;11.38;100.00;100298.28;1656255;86;21597;-60
2022/04/20 04:25:27;;;;;;;27.07;15.93;;;;;;;11.07;100.00;100300.29;1632079;85;21031;-60
2022/04/20 04:27:55;;;;;;;30.68;17.75;;;;;;;11.39;100.00;100306.84;1656333;87;21536;-60
2022/04/20 04:30:23;;;;;;;29.35;17.27;;;;;;;11.16;100.00;100303.68;1656139;87;21087;-59
2022/04/20 04:32:57;;;;;;;29.37;17.10;;;;;;;11.23;100.00;100301.19;1656126;85;21087;-60
2022/04/20 04:35:25;;;;;;;29.05;19.07;;;;;;;11.20;100.00;100296.17;1656434;87;21056;-59
2022/04/20 04:37:54;;;;;;;28.57;17.50;;;;;;;11.41;100.00;100304.59;1656062;86;21051;-59
2022/04/20 04:40:25;;;;;;;29.98;18.07;;;;;;;11.27;100.00;100307.00;1656407;87;21075;-60
2022/04/20 04:42:53;;;;;;;29.57;18.25;;;;;;;10.91;100.00;100304.06;1656332;87;21099;-60
2022/04/20 04:50:54;;;;;;;27.93;17.40;;;;;;;11.24;100.00;100308.45;1656201;87;21080;-60
2022/04/20 04:53:23;;;;;;;29.65;17.17;;;;;;;11.42;100.00;100319.59;1656340;87;21115;-60
2022/04/20 04:55:51;;;;;;;30.02;17.95;;;;;;;11.47;100.00;100324.03;1634362;87;21031;-59
2022/04/20 04:58:19;;;;;;;31.10;17.15;;;;;;;11.60;100.00;100326.38;1656342;86;21142;-60
2022/04/20 05:00:47;;;;;;;29.72;17.60;;;;;;;11.63;100.00;100327.49;1656109;85;21166;-60
2022/04/20 05:03:17;;;;;;;25.65;16.25;;;;;;;11.74;100.00;100326.96;1655541;86;21067;-60
2022/04/20 05:05:47;;;;;;;28.05;17.07;;;;;;;12.03;100.00;100337.53;1664178;86;22718;-60
2022/04/20 05:08:17;;;;;;;26.07;15.90;;;;;;;11.95;100.00;100331.48;1664549;86;21015;-60
2022/04/20 05:10:45;;;;;;;24.27;15.90;;;;;;;12.30;100.00;100331.80;1664433;86;21115;-59
2022/04/20 05:13:14;;;;;;;28.60;17.85;;;;;;;12.56;100.00;100337.66;1640337;86;21086;-60
2022/04/20 05:15:43;;;;;;;24.87;16.00;;;;;;;12.75;100.00;100337.93;1664403;86;21087;-60
2022/04/20 05:18:12;;;;;;;21.70;13.60;;;;;;;12.83;100.00;100338.34;1664299;86;21040;-60
2022/04/20 05:20:41;;;;;;;21.00;13.85;;;;;;;12.83;100.00;100346.08;1664385;86;21051;-60
2022/04/20 05:23:09;;;;;;;23.95;14.73;;;;;;;12.98;100.00;100343.94;1664238;86;21078;-59
2022/04/20 05:25:37;;;;;;;24.60;15.00;;;;;;;12.92;100.00;100344.76;1664292;86;21134;-60
2022/04/20 05:28:06;;;;;;;22.17;14.43;;;;;;;12.76;100.00;100345.60;1664488;86;21067;-60
2022/04/20 05:30:34;;;;;;;23.87;14.80;;;;;;;12.41;100.00;100351.43;1640356;86;21070;-60
2022/04/20 05:33:03;;;;;;;25.60;16.65;;;;;;;12.71;100.00;100355.37;1664498;86;21067;-60
2022/04/20 05:35:31;;;;;;;20.02;13.40;;;;;;;12.94;100.00;100353.25;1664169;86;21019;-60
2022/04/20 05:43:40;;;;;;;22.35;14.90;;;;;;;12.35;100.00;100346.59;1664274;86;21035;-60
2022/04/20 05:46:07;;;;;;;19.90;13.13;;;;;;;12.45;100.00;100343.89;1664215;86;21111;-59
2022/04/20 05:48:39;;;;;;;21.02;13.08;;;;;;;12.54;100.00;100351.58;1662616;86;21031;-60
2022/04/20 05:51:09;;;;;;;20.05;13.35;;;;;;;12.68;100.00;100360.70;1663987;86;21106;-59
2022/04/20 05:53:37;;;;;;;19.40;13.25;;;;;;;12.89;100.00;100364.29;1664520;86;21098;-59
2022/04/20 05:56:05;;;;;;;20.35;13.22;;;;;;;12.93;100.00;100357.56;1664356;86;21067;-61
2022/04/20 05:58:33;;;;;;;19.50;13.10;;;;;;;13.03;100.00;100354.00;1664341;86;21590;-60
2022/04/20 06:01:01;;;;;;;19.45;13.25;;;;;;;13.36;100.00;100359.04;1657199;85;21105;-60
2022/04/20 06:03:36;;;;;;;19.30;13.40;;;;;;;13.59;100.00;100355.09;1643096;85;21001;-59
2022/04/20 06:06:06;;;;;;;18.52;12.85;;;;;;;13.73;100.00;100349.58;1702762;83;21068;-60
2022/04/20 06:08:50;;;;;;;19.30;13.58;;;;;;;13.74;100.00;100348.17;1666200;84;21030;-61
2022/04/20 06:11:26;;;;;;;21.60;14.18;;;;;;;13.81;100.00;100340.42;1652805;85;21012;-60
2022/04/20 06:13:55;;;;;;;31.30;18.92;;;;;;;14.24;100.00;100342.14;1659464;85;20996;-61
2022/04/20 06:16:45;;;;;;;20.80;14.50;;;;;;;14.23;99.60;100333.55;1652024;85;21103;-60
2022/04/20 06:19:12;;;;;;;16.57;11.75;;;;;;;14.37;99.31;100336.55;1660410;85;21004;-60
2022/04/20 06:21:49;;;;;;;19.40;12.33;;;;;;;14.23;98.07;100328.37;1659112;85;21065;-59
2022/04/20 06:24:20;;;;;;;16.73;12.13;;;;;;;14.30;98.32;100326.23;1656081;85;21028;-61
2022/04/20 06:27:09;;;;;;;19.92;12.33;;;;;;;14.41;99.27;100328.95;1663521;85;20996;-59
2022/04/20 06:29:41;;;;;;;18.77;12.10;;;;;;;14.56;95.55;100328.97;1679262;85;21488;-60
2022/04/20 06:32:27;;;;;;;15.78;11.88;;;;;;;14.55;95.51;100344.92;1680012;85;21048;-59
2022/04/20 06:35:03;;;;;;;18.67;12.98;;;;;;;14.67;94.48;100352.42;1677326;85;21076;-60
2022/04/20 06:37:41;;;;;;;16.25;12.00;;;;;;;14.65;93.49;100353.45;1677189;85;21552;-59
2022/04/20 06:40:23;;;;;;;15.38;11.88;;;;;;;14.69;96.49;100351.86;1660833;85;21155;-60
2022/04/20 06:42:56;;;;;;;16.77;11.85;;;;;;;14.71;90.91;100355.66;1675977;85;21095;-59
2022/04/20 06:45:32;;;;;;;17.87;11.90;;;;;;;14.77;93.82;100359.15;1678321;85;21036;-60
2022/04/20 06:48:04;;;;;;;15.10;11.28;;;;;;;14.83;92.66;100357.45;1616991;85;21508;-60
2022/04/20 06:50:42;;;;;;;15.50;11.85;;;;;;;15.07;91.31;100356.34;1658606;85;21004;-59
2022/04/20 06:58:50;;;;;;;19.27;13.13;;;;;;;14.80;90.68;100348.13;1679618;85;21091;-59
2022/04/20 07:01:18;;;;;;;18.32;13.55;;;;;;;15.15;90.90;100335.92;1678601;85;21088;-59
2022/04/20 07:03:53;;;;;;;18.27;13.65;;;;;;;15.26;89.37;100331.31;1637456;85;21520;-59
2022/04/20 07:06:23;;;;;;;15.58;11.63;;;;;;;15.63;88.99;100324.94;1677036;85;21522;-60
2022/04/20 07:09:09;;;;;;;17.52;12.35;;;;;;;15.81;87.25;100317.25;1677298;85;21052;-60
2022/04/20 07:11:54;;;;;;;16.93;11.68;;;;;;;15.81;85.71;100313.80;1675577;85;21036;-59
2022/04/20 07:14:22;;;;;;;14.75;11.38;;;;;;;15.96;84.91;100311.92;1676680;85;21056;-61
2022/04/20 07:16:50;;;;;;;17.77;11.38;;;;;;;15.57;85.38;100305.90;1676025;85;21044;-59
2022/04/20 07:19:19;;;;;;;14.83;11.38;;;;;;;15.66;87.10;100303.16;1672650;85;21064;-60
2022/04/20 07:22:01;;;;;;;17.60;12.10;;;;;;;15.40;86.79;100302.69;1714729;84;21099;-60
2022/04/20 07:24:31;;;;;;;13.53;10.63;;;;;;;15.26;87.38;100307.97;1713820;84;21084;-60
2022/04/20 07:26:59;;;;;;;16.05;11.53;;;;;;;15.12;89.81;100308.89;1715530;84;21818;-57
2022/04/20 07:29:45;;;;;;;14.63;11.85;;;;;;;14.99;91.52;100313.23;1715176;84;21088;-58
2022/04/20 07:32:17;;;;;;;16.52;12.45;;;;;;;14.91;90.51;100318.91;1648001;84;21611;-57
2022/04/20 07:35:00;;;;;;;16.52;11.40;;;;;;;14.83;92.13;100329.78;1715198;84;21111;-61
2022/04/20 07:37:32;;;;;;;17.25;11.65;;;;;;;14.68;91.83;100338.55;1703547;84;21041;-60
2022/04/20 07:40:01;;;;;;;15.88;11.30;;;;;;;14.67;92.86;100343.35;1701595;84;21056;-61
2022/04/20 07:42:38;;;;;;;14.55;11.35;;;;;;;14.96;94.48;100340.64;1713600;84;21147;-60
2022/04/20 07:45:10;;;;;;;16.23;11.85;;;;;;;14.77;91.12;100341.83;1714343;84;21084;-60
2022/04/20 07:47:44;;;;;;;14.65;11.45;;;;;;;14.65;94.11;100351.69;1688565;84;21075;-60
2022/04/20 07:50:19;;;;;;;12.23;10.23;;;;;;;14.86;95.75;100351.23;1711549;84;21064;-60
2022/04/20 07:53:00;;;;;;;12.63;10.78;;;;;;;14.67;95.40;100354.19;1713773;84;21032;-60
2022/04/20 07:55:38;;;;;;;14.83;10.65;;;;;;;14.47;95.99;100363.18;1713291;84;21066;-60
2022/04/20 07:58:12;;;;;;;14.55;10.63;;;;;;;14.42;96.50;100373.36;1714481;84;21066;-60
2022/04/20 08:00:41;;;;;;;13.25;10.53;;;;;;;14.36;98.14;100370.33;1714747;82;21108;-60
2022/04/20 08:03:29;;;;;;;14.60;10.78;;;;;;;14.27;99.76;100373.01;1715445;84;21068;-60
2022/04/20 08:05:59;;;;;;;14.47;10.85;;;;;;;14.20;100.00;100368.68;1713909;83;21104;-60
2022/04/20 08:08:28;;;;;;;14.45;10.80;;;;;;;14.47;100.00;100369.19;1713568;84;21056;-60
2022/04/20 08:10:57;;;;;;;14.98;11.15;;;;;;;14.37;100.00;100369.39;1713448;83;21048;-60
2022/04/20 08:16:13;;;;;;;16.42;12.07;;;;;;;14.28;100.00;100366.92;1712068;83;21119;-61
2022/04/20 08:18:42;;;;;;;16.65;12.53;;;;;;;14.21;100.00;100366.48;1709929;84;21604;-60
2022/04/20 08:21:28;;;;;;;16.97;12.10;;;;;;;14.30;100.00;100366.36;1679835;84;21037;-60
2022/04/20 08:23:55;;;;;;;19.73;13.10;;;;;;;14.39;100.00;100364.48;1713424;84;21072;-60
2022/04/20 08:26:22;;;;;;;17.32;13.50;;;;;;;14.01;100.00;100364.27;1713353;84;21053;-60
2022/04/20 08:28:50;;;;;;;15.90;12.65;;;;;;;14.02;100.00;100356.86;1713680;84;21088;-60
2022/04/20 08:31:19;;;;;;;19.12;14.05;;;;;;;14.12;100.00;100359.26;1713309;83;21084;-60
2022/04/20 08:33:46;;;;;;;20.80;14.40;;;;;;;14.34;100.00;100361.36;1713272;84;21107;-60
2022/04/20 08:36:15;;;;;;;19.05;14.60;;;;;;;14.64;100.00;100359.11;1713491;84;21044;-61
2022/04/20 08:38:44;;;;;;;18.42;12.05;;;;;;;14.73;100.00;100360.27;1713415;83;21092;-59
2022/04/20 08:41:15;;;;;;;16.32;13.32;;;;;;;14.93;100.00;100358.52;1713409;84;21084;-60
2022/04/20 08:43:43;;;;;;;19.05;13.30;;;;;;;14.94;100.00;100360.64;1713293;84;21072;-60
2022/04/20 08:46:11;;;;;;;17.00;12.43;;;;;;;14.86;100.00;100363.72;1713230;83;21077;-60
2022/04/20 08:48:40;;;;;;;15.45;11.93;;;;;;;14.71;100.00;100355.66;1713621;83;21024;-60
2022/04/20 08:51:08;;;;;;;15.95;11.45;;;;;;;14.62;100.00;100359.20;1713441;83;21072;-60
2022/04/20 08:53:37;;;;;;;15.30;12.10;;;;;;;14.59;100.00;100361.14;1713354;83;21068;-60
2022/04/20 08:58:53;;;;;;;17.52;13.15;;;;;;;15.15;100.00;100361.03;1713625;84;21064;-60
2022/04/20 09:01:20;;;;;;;20.37;14.23;;;;;;;14.95;100.00;100364.44;1714240;82;21088;-60
2022/04/20 09:03:53;;;;;;;18.85;13.90;;;;;;;15.30;100.00;100356.58;1714305;84;21087;-59
2022/04/20 09:06:22;;;;;;;20.75;14.68;;;;;;;15.37;100.00;100358.67;1686522;84;21056;-61
2022/04/20 09:08:52;;;;;;;20.10;15.28;;;;;;;15.65;100.00;100361.99;1693441;83;21517;-60
2022/04/20 09:11:22;;;;;;;22.60;15.95;;;;;;;15.41;99.92;100360.61;1696535;84;20982;-61
2022/04/20 09:13:50;;;;;;;23.70;15.58;;;;;;;15.62;100.00;100359.63;1697060;84;21070;-61
2022/04/20 09:16:17;;;;;;;18.35;14.23;;;;;;;16.00;100.00;100366.59;1699547;83;21086;-62
2022/04/20 09:18:44;;;;;;;19.20;14.47;;;;;;;15.84;100.00;100367.29;1676681;84;21038;-61
2022/04/20 09:21:15;;;;;;;19.30;15.00;;;;;;;16.02;100.00;100369.91;1699894;83;21058;-60
2022/04/20 09:23:43;;;;;;;21.62;15.68;;;;;;;15.78;100.00;100369.83;1697576;83;21114;-61
2022/04/20 09:26:17;;;;;;;19.32;13.43;;;;;;;15.73;100.00;100374.01;1676395;84;21031;-61
2022/04/20 09:29:08;;;;;;;18.73;14.20;;;;;;;15.34;100.00;100367.94;1699464;83;21090;-61
2022/04/20 09:31:44;;;;;;;19.20;13.30;;;;;;;15.25;100.00;100364.67;1699612;83;21047;-59
2022/04/20 09:34:53;;;;;;;20.35;13.70;;;;;;;15.09;100.00;100365.31;1699624;83;21011;-61
2022/04/20 09:37:14;;;;;;;20.00;14.20;;;;;;;14.77;100.00;100357.85;1683977;84;21102;-60
2022/04/20 09:39:48;;;;;;;17.25;13.08;;;;;;;14.41;100.00;100365.22;1699716;84;21022;-60
2022/04/20 09:42:15;;;;;;;18.85;13.90;;;;;;;14.34;100.00;100367.83;1699655;83;21547;-61
2022/04/20 09:45:01;;;;;;;20.65;14.43;;;;;;;14.30;100.00;100366.36;1699609;83;21058;-60
2022/04/20 09:50:24;;;;;;;18.80;14.18;;;;;;;14.50;100.00;100374.19;1699657;84;21554;-61
2022/04/20 09:52:58;;;;;;;19.55;14.90;;;;;;;14.42;100.00;100385.02;1698975;83;21129;-61
2022/04/20 09:55:31;;;;;;;19.60;13.97;;;;;;;14.09;100.00;100393.55;1699296;83;21087;-61
2022/04/20 09:58:18;;;;;;;18.52;12.68;;;;;;;14.49;100.00;100392.41;1698957;83;21015;-61
2022/04/20 10:00:49;;;;;;;18.48;13.55;;;;;;;14.56;100.00;100398.44;1698600;83;21102;-61
2022/04/20 10:03:33;;;;;;;18.45;12.23;;;;;;;14.49;100.00;100398.41;1698884;83;21062;-61
2022/04/20 10:06:02;;;;;;;15.08;10.28;;;;;;;15.41;100.00;100388.66;1691956;83;21516;-61
2022/04/20 10:08:29;;;;;;;14.38;10.13;;;;;;;16.61;100.00;100390.86;1659904;85;21096;-61
2022/04/20 10:10:58;;;;;;;11.50;9.28;;;;;;;17.35;98.07;100393.31;1658950;86;21124;-61
2022/04/20 10:13:28;;;;;;;10.95;8.43;;;;;;;17.21;93.73;100394.81;1658617;85;21112;-61
2022/04/20 10:16:09;;;;;;;10.00;7.70;;;;;;;16.92;95.66;100396.47;1658620;86;21596;-61
2022/04/20 10:18:40;;;;;;;11.05;7.87;;;;;;;16.98;98.71;100388.70;1658608;86;21085;-62
2022/04/20 10:21:14;;;;;;;10.40;7.92;;;;;;;16.98;96.77;100397.33;1658890;86;21025;-62
2022/04/20 10:23:47;;;;;;;10.05;8.00;;;;;;;16.93;98.52;100395.55;1658797;86;20997;-62
2022/04/20 10:26:17;;;;;;;10.10;6.90;;;;;;;17.15;97.70;100391.36;1658617;86;21501;-61
2022/04/20 10:28:53;;;;;;;8.45;6.33;;;;;;;17.53;94.10;100388.99;1658792;85;20989;-62
2022/04/20 10:31:42;;;;;;;8.68;6.53;;;;;;;17.40;91.29;100394.30;1658000;86;21128;-60
2022/04/20 10:34:18;;;;;;;8.93;6.85;;;;;;;17.60;91.77;100392.80;1637776;86;21568;-60
2022/04/20 10:37:07;;;;;;;9.65;6.83;;;;;;;17.04;88.92;100389.56;1658688;86;21065;-61
2022/04/20 10:39:40;;;;;;;8.75;5.25;;;;;;;16.60;91.58;100397.45;1688518;84;21018;-60
2022/04/20 10:42:16;;;;;;;7.28;5.83;;;;;;;15.86;94.82;100392.67;1692214;84;21535;-60
2022/04/20 10:45:05;;;;;;;8.13;6.15;;;;;;;15.58;96.93;100392.72;1683856;85;21059;-61
2022/04/20 10:47:42;;;;;;;9.25;6.55;;;;;;;15.41;100.00;100395.15;1683973;85;21083;-61
2022/04/20 10:50:26;;;;;;;8.70;5.87;;;;;;;15.18;100.00;100395.81;1684015;85;21034;-60
2022/04/20 10:53:02;;;;;;;7.33;5.53;;;;;;;15.03;100.00;100396.35;1684119;85;21657;-58
2022/04/20 10:55:41;;;;;;;7.62;5.58;;;;;;;14.89;100.00;100395.11;1684572;83;21047;-59
2022/04/20 10:58:22;;;;;;;8.15;5.58;;;;;;;14.99;100.00;100395.71;1684102;85;21012;-61
2022/04/20 11:01:09;;;;;;;8.03;5.70;;;;;;;15.37;100.00;100389.80;1683889;84;21082;-61
2022/04/20 11:04:03;;;;;;;7.75;5.75;;;;;;;16.02;100.00;100391.51;1679745;85;21102;-61
2022/04/20 11:07:03;;;;;;;8.28;6.08;;;;;;;15.96;100.00;100391.93;1687644;83;21012;-61
2022/04/20 11:09:49;;;;;;;7.65;5.90;;;;;;;16.21;100.00;100385.86;1720869;83;21009;-60
2022/04/20 11:18:45;;;;;;;9.50;6.45;;;;;;;15.99;100.00;100386.98;1692970;85;21561;-60
2022/04/20 11:21:23;;;;;;;8.15;6.40;;;;;;;16.00;99.87;100395.16;1691558;85;21873;-60
2022/04/20 11:24:11;;;;;;;7.87;6.27;;;;;;;16.61;95.20;100387.44;1693410;85;21064;-61
2022/04/20 11:26:51;;;;;;;8.30;5.90;;;;;;;16.73;89.81;100390.93;1693037;85;21056;-61
2022/04/20 11:29:22;;;;;;;9.03;5.50;;;;;;;16.82;90.62;100391.11;1693127;85;21028;-59
2022/04/20 11:32:02;;;;;;;7.87;5.35;;;;;;;16.67;82.40;100384.88;1693412;85;21021;-60
2022/04/20 11:34:44;;;;;;;10.38;6.17;;;;;;;16.49;87.53;100393.50;1692619;85;21097;-61
2022/04/20 11:37:11;;;;;;;7.80;5.03;;;;;;;16.83;83.88;100381.56;1692975;85;21204;-61
2022/04/20 11:39:38;;;;;;;9.15;5.00;;;;;;;16.45;77.01;100393.36;1693303;85;21048;-61
2022/04/20 11:42:07;;;;;;;7.12;4.70;;;;;;;16.48;76.90;100392.65;1692933;85;21052;-61
2022/04/20 11:44:40;;;;;;;7.80;4.22;;;;;;;16.75;77.20;100399.45;1704770;84;21486;-59
2022/04/20 11:47:16;;;;;;;7.08;3.87;;;;;;;15.99;74.71;100408.58;1709002;84;21079;-59
2022/04/20 11:49:49;;;;;;;10.90;4.95;;;;;;;15.43;80.38;100411.91;1714259;84;21024;-59
2022/04/20 11:52:21;;;;;;;5.50;3.60;;;;;;;14.83;86.69;100416.59;1715957;83;21052;-59
2022/04/20 11:54:48;;;;;;;4.75;3.50;;;;;;;14.71;89.39;100411.36;1715911;84;21021;-59
2022/04/20 11:57:21;;;;;;;5.63;3.70;;;;;;;14.53;92.62;100412.83;1715973;84;21001;-59
2022/04/20 11:59:53;;;;;;;6.03;3.80;;;;;;;14.05;96.02;100400.70;1712472;84;21081;-60